sensor_id;sensor_type;location;lat;lon;timestamp;P1;durP1;ratioP1;P2;durP2;ratioP2
33840;SDS011;20142;28.494;-16.312;2022-09-20T00:00:31;9.52;;;2.08;;
33840;SDS011;20142;28.494;-16.312;2022-09-20T00:05:36;6.63;;;1.75;;
33840;SDS011;20142;28.494;-16.312;2022-09-20T00:10:39;8.07;;;1.88;;
33840;SDS011;20142;28.494;-16.312;2022-09-20T00:15:43;9.70;;;1.80;;
33840;SDS011;20142;28.494;-16.312;2022-09-20T00:20:45;6.40;;;2.35;;
33840;SDS011;20142;28.494;-16.312;2022-09-20T00:25:55;11.48;;;2.65;;
33840;SDS011;20142;28.494;-16.312;2022-09-20T00:30:58;9.32;;;2.25;;
33840;SDS011;20142;28.494;-16.312;2022-09-20T00:36:00;8.73;;;3.03;;
33840;SDS011;20142;28.494;-16.312;2022-09-20T00:41:02;6.32;;;2.10;;
33840;SDS011;20142;28.494;-16.312;2022-09-20T00:46:04;13.80;;;3.17;;
33840;SDS011;20142;28.494;-16.312;2022-09-20T00:56:16;16.80;;;3.42;;
33840;SDS011;20142;28.494;-16.312;2022-09-20T01:01:22;7.97;;;3.20;;
33840;SDS011;20142;28.494;-16.312;2022-09-20T01:06:23;8.63;;;3.30;;
33840;SDS011;20142;28.494;-16.312;2022-09-20T01:11:25;9.55;;;4.50;;
33840;SDS011;20142;28.494;-16.312;2022-09-20T01:16:29;10.45;;;4.50;;
33840;SDS011;20142;28.494;-16.312;2022-09-20T01:21:31;10.30;;;5.07;;
33840;SDS011;20142;28.494;-16.312;2022-09-20T01:31:59;11.35;;;3.88;;
33840;SDS011;20142;28.494;-16.312;2022-09-20T01:37:17;8.68;;;3.60;;
33840;SDS011;20142;28.494;-16.312;2022-09-20T01:42:31;8.27;;;3.97;;
33840;SDS011;20142;28.494;-16.312;2022-09-20T02:20:57;8.95;;;2.67;;
33840;SDS011;20142;28.494;-16.312;2022-09-20T02:36:45;8.00;;;3.03;;
33840;SDS011;20142;28.494;-16.312;2022-09-20T02:42:12;7.32;;;3.72;;
33840;SDS011;20142;28.494;-16.312;2022-09-20T03:19:23;7.32;;;3.88;;
33840;SDS011;20142;28.494;-16.312;2022-09-20T04:18:27;9.35;;;3.70;;
33840;SDS011;20142;28.494;-16.312;2022-09-20T04:29:15;7.95;;;3.13;;
33840;SDS011;20142;28.494;-16.312;2022-09-20T04:34:47;7.35;;;2.88;;
33840;SDS011;20142;28.494;-16.312;2022-09-20T04:56:38;7.15;;;2.90;;
33840;SDS011;20142;28.494;-16.312;2022-09-20T05:01:51;7.75;;;2.80;;
33840;SDS011;20142;28.494;-16.312;2022-09-20T05:07:52;9.68;;;3.30;;
33840;SDS011;20142;28.494;-16.312;2022-09-20T05:12:33;9.75;;;3.20;;
33840;SDS011;20142;28.494;-16.312;2022-09-20T05:23:20;7.03;;;2.90;;
33840;SDS011;20142;28.494;-16.312;2022-09-20T05:39:24;9.05;;;2.88;;
33840;SDS011;20142;28.494;-16.312;2022-09-20T06:00:53;5.30;;;2.75;;
33840;SDS011;20142;28.494;-16.312;2022-09-20T06:06:02;7.07;;;2.25;;
33840;SDS011;20142;28.494;-16.312;2022-09-20T06:17:10;4.18;;;2.42;;
33840;SDS011;20142;28.494;-16.312;2022-09-20T06:27:25;10.27;;;2.53;;
33840;SDS011;20142;28.494;-16.312;2022-09-20T06:32:58;15.20;;;2.90;;
33840;SDS011;20142;28.494;-16.312;2022-09-20T06:38:27;13.40;;;5.72;;
33840;SDS011;20142;28.494;-16.312;2022-09-20T06:44:03;13.65;;;3.80;;
33840;SDS011;20142;28.494;-16.312;2022-09-20T06:49:07;6.95;;;2.63;;
33840;SDS011;20142;28.494;-16.312;2022-09-20T06:54:15;13.93;;;2.83;;
33840;SDS011;20142;28.494;-16.312;2022-09-20T06:59:18;10.63;;;2.45;;
33840;SDS011;20142;28.494;-16.312;2022-09-20T07:04:20;13.55;;;2.65;;
33840;SDS011;20142;28.494;-16.312;2022-09-20T07:09:22;10.02;;;2.65;;
33840;SDS011;20142;28.494;-16.312;2022-09-20T07:14:25;17.30;;;2.90;;
33840;SDS011;20142;28.494;-16.312;2022-09-20T07:19:27;9.73;;;2.65;;
33840;SDS011;20142;28.494;-16.312;2022-09-20T07:24:29;11.27;;;3.05;;
33840;SDS011;20142;28.494;-16.312;2022-09-20T07:29:31;9.48;;;2.17;;
33840;SDS011;20142;28.494;-16.312;2022-09-20T07:34:34;16.23;;;2.72;;
33840;SDS011;20142;28.494;-16.312;2022-09-20T07:39:36;8.23;;;2.22;;
33840;SDS011;20142;28.494;-16.312;2022-09-20T07:44:38;10.30;;;2.95;;
33840;SDS011;20142;28.494;-16.312;2022-09-20T07:49:41;11.27;;;3.15;;
33840;SDS011;20142;28.494;-16.312;2022-09-20T07:54:43;11.40;;;3.17;;
33840;SDS011;20142;28.494;-16.312;2022-09-20T07:59:45;6.15;;;2.40;;
33840;SDS011;20142;28.494;-16.312;2022-09-20T08:04:47;9.90;;;2.78;;
33840;SDS011;20142;28.494;-16.312;2022-09-20T08:09:49;8.55;;;2.38;;
33840;SDS011;20142;28.494;-16.312;2022-09-20T08:14:51;9.75;;;2.30;;
33840;SDS011;20142;28.494;-16.312;2022-09-20T08:19:53;7.13;;;2.40;;
33840;SDS011;20142;28.494;-16.312;2022-09-20T08:24:55;9.45;;;1.58;;
33840;SDS011;20142;28.494;-16.312;2022-09-20T08:29:57;6.97;;;1.30;;
33840;SDS011;20142;28.494;-16.312;2022-09-20T08:34:59;5.30;;;1.92;;
33840;SDS011;20142;28.494;-16.312;2022-09-20T08:40:01;8.30;;;2.47;;
33840;SDS011;20142;28.494;-16.312;2022-09-20T08:45:04;3.95;;;1.50;;
33840;SDS011;20142;28.494;-16.312;2022-09-20T08:50:10;3.42;;;1.17;;
33840;SDS011;20142;28.494;-16.312;2022-09-20T08:55:16;5.65;;;1.10;;
33840;SDS011;20142;28.494;-16.312;2022-09-20T09:00:23;5.07;;;1.27;;
33840;SDS011;20142;28.494;-16.312;2022-09-20T09:05:30;10.00;;;1.47;;
33840;SDS011;20142;28.494;-16.312;2022-09-20T09:10:37;4.40;;;1.30;;
33840;SDS011;20142;28.494;-16.312;2022-09-20T09:15:39;1.98;;;0.63;;
33840;SDS011;20142;28.494;-16.312;2022-09-20T09:20:43;9.98;;;0.90;;
33840;SDS011;20142;28.494;-16.312;2022-09-20T09:25:46;2.35;;;0.90;;
33840;SDS011;20142;28.494;-16.312;2022-09-20T09:30:48;1.85;;;0.77;;
33840;SDS011;20142;28.494;-16.312;2022-09-20T09:41:04;3.47;;;1.00;;
33840;SDS011;20142;28.494;-16.312;2022-09-20T09:46:30;1.92;;;0.90;;
33840;SDS011;20142;28.494;-16.312;2022-09-20T09:51:34;5.30;;;1.45;;
33840;SDS011;20142;28.494;-16.312;2022-09-20T10:55:40;5.10;;;0.98;;
33840;SDS011;20142;28.494;-16.312;2022-09-20T11:06:42;4.50;;;0.63;;
33840;SDS011;20142;28.494;-16.312;2022-09-20T11:17:06;1.83;;;0.57;;
33840;SDS011;20142;28.494;-16.312;2022-09-20T11:22:39;2.30;;;0.30;;
33840;SDS011;20142;28.494;-16.312;2022-09-20T11:27:52;3.92;;;0.90;;
33840;SDS011;20142;28.494;-16.312;2022-09-20T11:33:09;1.38;;;0.50;;
33840;SDS011;20142;28.494;-16.312;2022-09-20T11:43:48;3.17;;;0.70;;
33840;SDS011;20142;28.494;-16.312;2022-09-20T11:54:12;5.70;;;0.80;;
33840;SDS011;20142;28.494;-16.312;2022-09-20T12:04:33;2.05;;;0.40;;
33840;SDS011;20142;28.494;-16.312;2022-09-20T12:09:38;2.35;;;0.65;;
33840;SDS011;20142;28.494;-16.312;2022-09-20T12:14:42;1.00;;;0.40;;
33840;SDS011;20142;28.494;-16.312;2022-09-20T12:19:58;0.90;;;0.40;;
33840;SDS011;20142;28.494;-16.312;2022-09-20T12:30:38;1.38;;;0.50;;
33840;SDS011;20142;28.494;-16.312;2022-09-20T12:35:56;2.10;;;0.60;;
33840;SDS011;20142;28.494;-16.312;2022-09-20T12:41:03;3.00;;;0.57;;
33840;SDS011;20142;28.494;-16.312;2022-09-20T12:46:24;2.88;;;0.30;;
33840;SDS011;20142;28.494;-16.312;2022-09-20T12:51:34;2.72;;;0.57;;
33840;SDS011;20142;28.494;-16.312;2022-09-20T12:56:55;1.75;;;0.47;;
33840;SDS011;20142;28.494;-16.312;2022-09-20T13:02:39;1.75;;;0.45;;
33840;SDS011;20142;28.494;-16.312;2022-09-20T13:07:52;1.90;;;0.50;;
33840;SDS011;20142;28.494;-16.312;2022-09-20T13:13:01;1.73;;;0.50;;
33840;SDS011;20142;28.494;-16.312;2022-09-20T13:18:12;1.13;;;0.40;;
33840;SDS011;20142;28.494;-16.312;2022-09-20T13:23:16;2.83;;;0.40;;
33840;SDS011;20142;28.494;-16.312;2022-09-20T13:28:28;1.25;;;0.30;;
33840;SDS011;20142;28.494;-16.312;2022-09-20T13:33:40;1.10;;;0.22;;
33840;SDS011;20142;28.494;-16.312;2022-09-20T13:38:42;2.05;;;0.82;;
33840;SDS011;20142;28.494;-16.312;2022-09-20T13:43:45;1.67;;;0.82;;
33840;SDS011;20142;28.494;-16.312;2022-09-20T13:48:52;2.88;;;0.50;;
33840;SDS011;20142;28.494;-16.312;2022-09-20T13:59:34;3.22;;;0.55;;
33840;SDS011;20142;28.494;-16.312;2022-09-20T14:04:40;1.17;;;0.57;;
33840;SDS011;20142;28.494;-16.312;2022-09-20T14:09:42;3.08;;;0.60;;
33840;SDS011;20142;28.494;-16.312;2022-09-20T14:14:45;4.03;;;0.77;;
33840;SDS011;20142;28.494;-16.312;2022-09-20T14:19:48;1.35;;;0.28;;
33840;SDS011;20142;28.494;-16.312;2022-09-20T14:25:02;1.42;;;0.45;;
33840;SDS011;20142;28.494;-16.312;2022-09-20T14:30:30;3.67;;;0.65;;
33840;SDS011;20142;28.494;-16.312;2022-09-20T14:35:35;0.88;;;0.63;;
33840;SDS011;20142;28.494;-16.312;2022-09-20T14:40:44;2.08;;;0.50;;
33840;SDS011;20142;28.494;-16.312;2022-09-20T14:45:50;2.22;;;0.40;;
33840;SDS011;20142;28.494;-16.312;2022-09-20T14:56:25;1.33;;;0.45;;
33840;SDS011;20142;28.494;-16.312;2022-09-20T15:01:36;2.47;;;0.47;;
33840;SDS011;20142;28.494;-16.312;2022-09-20T15:06:40;4.15;;;0.60;;
33840;SDS011;20142;28.494;-16.312;2022-09-20T15:11:42;1.77;;;0.43;;
33840;SDS011;20142;28.494;-16.312;2022-09-20T15:16:44;3.63;;;0.50;;
33840;SDS011;20142;28.494;-16.312;2022-09-20T15:21:46;2.53;;;0.43;;
33840;SDS011;20142;28.494;-16.312;2022-09-20T15:26:48;2.15;;;0.40;;
33840;SDS011;20142;28.494;-16.312;2022-09-20T15:31:50;0.82;;;0.40;;
33840;SDS011;20142;28.494;-16.312;2022-09-20T15:36:52;0.60;;;0.30;;
33840;SDS011;20142;28.494;-16.312;2022-09-20T15:41:54;1.65;;;0.35;;
33840;SDS011;20142;28.494;-16.312;2022-09-20T15:46:56;3.10;;;0.40;;
33840;SDS011;20142;28.494;-16.312;2022-09-20T15:51:58;2.20;;;0.47;;
33840;SDS011;20142;28.494;-16.312;2022-09-20T15:57:01;0.60;;;0.40;;
33840;SDS011;20142;28.494;-16.312;2022-09-20T16:02:04;0.38;;;0.30;;
33840;SDS011;20142;28.494;-16.312;2022-09-20T16:07:06;2.40;;;0.60;;
33840;SDS011;20142;28.494;-16.312;2022-09-20T16:12:09;2.10;;;0.30;;
33840;SDS011;20142;28.494;-16.312;2022-09-20T16:17:11;1.33;;;0.55;;
33840;SDS011;20142;28.494;-16.312;2022-09-20T16:22:13;1.48;;;0.60;;
33840;SDS011;20142;28.494;-16.312;2022-09-20T16:27:15;2.15;;;0.70;;
33840;SDS011;20142;28.494;-16.312;2022-09-20T16:32:17;0.30;;;0.22;;
33840;SDS011;20142;28.494;-16.312;2022-09-20T16:37:19;1.15;;;0.40;;
33840;SDS011;20142;28.494;-16.312;2022-09-20T16:42:23;2.28;;;0.50;;
33840;SDS011;20142;28.494;-16.312;2022-09-20T16:47:25;1.33;;;0.30;;
33840;SDS011;20142;28.494;-16.312;2022-09-20T16:52:27;2.83;;;0.77;;
33840;SDS011;20142;28.494;-16.312;2022-09-20T16:57:28;3.67;;;0.40;;
33840;SDS011;20142;28.494;-16.312;2022-09-20T17:02:31;2.13;;;0.30;;
33840;SDS011;20142;28.494;-16.312;2022-09-20T17:07:34;3.10;;;0.47;;
33840;SDS011;20142;28.494;-16.312;2022-09-20T17:12:36;0.88;;;0.20;;
33840;SDS011;20142;28.494;-16.312;2022-09-20T17:17:41;2.92;;;0.57;;
33840;SDS011;20142;28.494;-16.312;2022-09-20T17:22:44;2.00;;;0.30;;
33840;SDS011;20142;28.494;-16.312;2022-09-20T17:27:46;1.67;;;0.30;;
33840;SDS011;20142;28.494;-16.312;2022-09-20T17:32:51;0.73;;;0.28;;
33840;SDS011;20142;28.494;-16.312;2022-09-20T17:37:54;2.08;;;0.40;;
33840;SDS011;20142;28.494;-16.312;2022-09-20T17:42:56;1.52;;;0.38;;
33840;SDS011;20142;28.494;-16.312;2022-09-20T17:47:58;1.05;;;0.40;;
33840;SDS011;20142;28.494;-16.312;2022-09-20T17:53:01;3.13;;;0.40;;
33840;SDS011;20142;28.494;-16.312;2022-09-20T17:58:04;1.08;;;0.30;;
33840;SDS011;20142;28.494;-16.312;2022-09-20T18:03:06;0.88;;;0.40;;
33840;SDS011;20142;28.494;-16.312;2022-09-20T18:08:08;1.17;;;0.40;;
33840;SDS011;20142;28.494;-16.312;2022-09-20T18:13:11;2.13;;;0.40;;
33840;SDS011;20142;28.494;-16.312;2022-09-20T18:18:12;1.75;;;0.50;;
33840;SDS011;20142;28.494;-16.312;2022-09-20T18:23:14;4.07;;;0.50;;
33840;SDS011;20142;28.494;-16.312;2022-09-20T18:28:16;3.20;;;0.50;;
33840;SDS011;20142;28.494;-16.312;2022-09-20T18:33:18;2.75;;;0.40;;
33840;SDS011;20142;28.494;-16.312;2022-09-20T18:38:20;2.35;;;0.70;;
33840;SDS011;20142;28.494;-16.312;2022-09-20T18:43:22;3.10;;;0.40;;
33840;SDS011;20142;28.494;-16.312;2022-09-20T18:48:25;1.42;;;0.28;;
33840;SDS011;20142;28.494;-16.312;2022-09-20T18:53:33;2.80;;;0.40;;
33840;SDS011;20142;28.494;-16.312;2022-09-20T18:58:36;1.65;;;0.40;;
33840;SDS011;20142;28.494;-16.312;2022-09-20T19:03:44;1.45;;;0.40;;
33840;SDS011;20142;28.494;-16.312;2022-09-20T19:08:53;1.00;;;0.30;;
33840;SDS011;20142;28.494;-16.312;2022-09-20T19:14:06;1.25;;;0.50;;
33840;SDS011;20142;28.494;-16.312;2022-09-20T19:19:22;2.03;;;0.32;;
33840;SDS011;20142;28.494;-16.312;2022-09-20T19:24:42;3.75;;;0.73;;
33840;SDS011;20142;28.494;-16.312;2022-09-20T19:30:03;4.63;;;0.60;;
33840;SDS011;20142;28.494;-16.312;2022-09-20T19:35:08;7.88;;;0.63;;
33840;SDS011;20142;28.494;-16.312;2022-09-20T19:50:57;7.63;;;1.02;;
33840;SDS011;20142;28.494;-16.312;2022-09-20T20:01:14;3.80;;;0.85;;
33840;SDS011;20142;28.494;-16.312;2022-09-20T20:21:51;3.88;;;0.80;;
33840;SDS011;20142;28.494;-16.312;2022-09-20T20:26:57;3.00;;;0.80;;
33840;SDS011;20142;28.494;-16.312;2022-09-20T20:31:59;4.85;;;0.90;;
33840;SDS011;20142;28.494;-16.312;2022-09-20T20:37:04;6.10;;;1.08;;
33840;SDS011;20142;28.494;-16.312;2022-09-20T20:42:06;4.95;;;1.08;;
33840;SDS011;20142;28.494;-16.312;2022-09-20T20:47:12;4.03;;;0.98;;
33840;SDS011;20142;28.494;-16.312;2022-09-20T20:52:14;4.97;;;0.73;;
33840;SDS011;20142;28.494;-16.312;2022-09-20T20:57:16;3.08;;;0.77;;
33840;SDS011;20142;28.494;-16.312;2022-09-20T21:02:18;2.75;;;0.73;;
33840;SDS011;20142;28.494;-16.312;2022-09-20T21:07:21;2.47;;;1.10;;
33840;SDS011;20142;28.494;-16.312;2022-09-20T21:12:23;3.33;;;1.00;;
33840;SDS011;20142;28.494;-16.312;2022-09-20T21:17:25;7.55;;;1.20;;
33840;SDS011;20142;28.494;-16.312;2022-09-20T21:22:27;5.07;;;1.00;;
33840;SDS011;20142;28.494;-16.312;2022-09-20T21:27:31;4.07;;;1.20;;
33840;SDS011;20142;28.494;-16.312;2022-09-20T21:32:36;4.53;;;1.20;;
33840;SDS011;20142;28.494;-16.312;2022-09-20T21:37:38;3.35;;;0.98;;
33840;SDS011;20142;28.494;-16.312;2022-09-20T21:42:40;7.13;;;1.50;;
33840;SDS011;20142;28.494;-16.312;2022-09-20T21:47:42;7.13;;;1.02;;
33840;SDS011;20142;28.494;-16.312;2022-09-20T21:52:48;4.90;;;1.42;;
33840;SDS011;20142;28.494;-16.312;2022-09-20T21:57:50;2.55;;;1.30;;
33840;SDS011;20142;28.494;-16.312;2022-09-20T22:02:53;6.18;;;1.35;;
33840;SDS011;20142;28.494;-16.312;2022-09-20T22:07:58;1.77;;;1.10;;
33840;SDS011;20142;28.494;-16.312;2022-09-20T22:13:01;2.55;;;1.40;;
33840;SDS011;20142;28.494;-16.312;2022-09-20T22:18:03;3.47;;;1.05;;
33840;SDS011;20142;28.494;-16.312;2022-09-20T22:23:05;4.80;;;1.73;;
33840;SDS011;20142;28.494;-16.312;2022-09-20T22:28:07;6.82;;;1.23;;
33840;SDS011;20142;28.494;-16.312;2022-09-20T22:33:09;4.53;;;0.85;;
33840;SDS011;20142;28.494;-16.312;2022-09-20T22:38:11;3.10;;;0.85;;
33840;SDS011;20142;28.494;-16.312;2022-09-20T22:43:13;4.47;;;1.25;;
33840;SDS011;20142;28.494;-16.312;2022-09-20T22:48:15;3.20;;;1.20;;
33840;SDS011;20142;28.494;-16.312;2022-09-20T22:53:17;2.03;;;0.95;;
33840;SDS011;20142;28.494;-16.312;2022-09-20T22:58:19;1.88;;;1.00;;
33840;SDS011;20142;28.494;-16.312;2022-09-20T23:03:21;3.47;;;0.88;;
33840;SDS011;20142;28.494;-16.312;2022-09-20T23:08:22;2.08;;;1.10;;
33840;SDS011;20142;28.494;-16.312;2022-09-20T23:13:24;2.65;;;1.30;;
33840;SDS011;20142;28.494;-16.312;2022-09-20T23:18:26;3.95;;;0.95;;
33840;SDS011;20142;28.494;-16.312;2022-09-20T23:23:28;3.47;;;1.00;;
33840;SDS011;20142;28.494;-16.312;2022-09-20T23:28:30;3.60;;;0.80;;
33840;SDS011;20142;28.494;-16.312;2022-09-20T23:33:36;3.15;;;0.77;;
33840;SDS011;20142;28.494;-16.312;2022-09-20T23:38:38;4.35;;;0.50;;
33840;SDS011;20142;28.494;-16.312;2022-09-20T23:43:40;1.15;;;0.40;;
33840;SDS011;20142;28.494;-16.312;2022-09-20T23:48:43;1.02;;;0.43;;
33840;SDS011;20142;28.494;-16.312;2022-09-20T23:53:45;2.70;;;0.70;;
33840;SDS011;20142;28.494;-16.312;2022-09-20T23:58:47;2.20;;;0.50;;
